Baden, Austria
Current Conditions -  °F | °C
As of 9:50 PM on Sunday 23 Nov 2014 (Local Time) from LOWW Reporting Station
Broken Clouds Broken Clouds  
Wind Chill: 36°   Ceiling: 2100
Heat Index: 43°   Visibility: 6mi
Dew Point: 36°   Wind: 14mph
Humidity: 76%   Direction: 140°SE
Pressure: 30.36"   Gusts: NA
Location:  48.01°N, 16.24°E
Report Text: LOWW 232050Z 14012KT 9999 BKN021 06/02 Q1028 NOSIG
Loading
Personal Weather Stations






























Interactive Weather Map New forecast layout! Learn more

10-Day Weather Forecast

Advertisements
Track Severe Weather on mobile